sensor_id;sensor_type;location;lat;lon;timestamp;P1;durP1;ratioP1;P2;durP2;ratioP2
74229;SDS011;62589;12.568;99.958;2023-06-26T00:02:12;3.15;;;0.50;;
74229;SDS011;62589;12.568;99.958;2023-06-26T00:04:38;5.43;;;0.70;;
74229;SDS011;62589;12.568;99.958;2023-06-26T00:07:05;6.90;;;0.80;;
74229;SDS011;62589;12.568;99.958;2023-06-26T00:09:31;4.30;;;0.77;;
74229;SDS011;62589;12.568;99.958;2023-06-26T00:11:58;6.32;;;0.90;;
74229;SDS011;62589;12.568;99.958;2023-06-26T00:14:25;3.63;;;0.73;;
74229;SDS011;62589;12.568;99.958;2023-06-26T00:16:51;3.25;;;0.75;;
74229;SDS011;62589;12.568;99.958;2023-06-26T00:19:18;2.70;;;0.70;;
74229;SDS011;62589;12.568;99.958;2023-06-26T00:21:45;4.20;;;0.82;;
74229;SDS011;62589;12.568;99.958;2023-06-26T00:24:14;5.97;;;0.65;;
74229;SDS011;62589;12.568;99.958;2023-06-26T00:26:41;3.70;;;1.00;;
74229;SDS011;62589;12.568;99.958;2023-06-26T00:29:08;4.32;;;1.25;;
74229;SDS011;62589;12.568;99.958;2023-06-26T00:31:34;3.75;;;0.88;;
74229;SDS011;62589;12.568;99.958;2023-06-26T00:34:01;4.15;;;0.90;;
74229;SDS011;62589;12.568;99.958;2023-06-26T00:36:27;5.30;;;1.20;;
74229;SDS011;62589;12.568;99.958;2023-06-26T00:38:54;1.58;;;0.70;;
74229;SDS011;62589;12.568;99.958;2023-06-26T00:41:20;5.47;;;1.17;;
74229;SDS011;62589;12.568;99.958;2023-06-26T00:43:46;3.22;;;0.98;;
74229;SDS011;62589;12.568;99.958;2023-06-26T00:46:14;4.95;;;1.30;;
74229;SDS011;62589;12.568;99.958;2023-06-26T00:48:41;10.90;;;1.70;;
74229;SDS011;62589;12.568;99.958;2023-06-26T00:51:09;5.32;;;1.50;;
74229;SDS011;62589;12.568;99.958;2023-06-26T00:53:36;10.27;;;1.50;;
74229;SDS011;62589;12.568;99.958;2023-06-26T00:56:03;5.78;;;1.83;;
74229;SDS011;62589;12.568;99.958;2023-06-26T00:58:31;6.63;;;1.58;;
74229;SDS011;62589;12.568;99.958;2023-06-26T01:00:57;3.72;;;1.80;;
74229;SDS011;62589;12.568;99.958;2023-06-26T01:03:26;5.82;;;1.92;;
74229;SDS011;62589;12.568;99.958;2023-06-26T01:05:52;4.10;;;1.60;;
74229;SDS011;62589;12.568;99.958;2023-06-26T01:08:24;5.30;;;1.50;;
74229;SDS011;62589;12.568;99.958;2023-06-26T01:10:52;6.88;;;1.77;;
74229;SDS011;62589;12.568;99.958;2023-06-26T01:13:19;3.42;;;1.05;;
74229;SDS011;62589;12.568;99.958;2023-06-26T01:15:46;5.80;;;1.20;;
74229;SDS011;62589;12.568;99.958;2023-06-26T01:18:13;5.05;;;1.02;;
74229;SDS011;62589;12.568;99.958;2023-06-26T01:20:40;4.65;;;1.33;;
74229;SDS011;62589;12.568;99.958;2023-06-26T01:23:22;4.20;;;1.02;;
74229;SDS011;62589;12.568;99.958;2023-06-26T01:28:49;2.57;;;0.97;;
74229;SDS011;62589;12.568;99.958;2023-06-26T01:31:17;4.38;;;0.60;;
74229;SDS011;62589;12.568;99.958;2023-06-26T01:33:44;4.03;;;1.38;;
74229;SDS011;62589;12.568;99.958;2023-06-26T01:36:12;4.90;;;1.00;;
74229;SDS011;62589;12.568;99.958;2023-06-26T01:38:38;3.78;;;1.00;;
74229;SDS011;62589;12.568;99.958;2023-06-26T01:41:05;2.08;;;0.60;;
74229;SDS011;62589;12.568;99.958;2023-06-26T01:46:55;2.72;;;0.75;;
74229;SDS011;62589;12.568;99.958;2023-06-26T01:52:35;5.07;;;2.22;;
74229;SDS011;62589;12.568;99.958;2023-06-26T01:58:08;9.27;;;3.88;;
74229;SDS011;62589;12.568;99.958;2023-06-26T02:00:35;10.23;;;5.38;;
74229;SDS011;62589;12.568;99.958;2023-06-26T02:03:03;12.68;;;6.13;;
74229;SDS011;62589;12.568;99.958;2023-06-26T02:05:31;9.38;;;4.45;;
74229;SDS011;62589;12.568;99.958;2023-06-26T02:07:58;6.65;;;2.90;;
74229;SDS011;62589;12.568;99.958;2023-06-26T02:10:26;4.75;;;2.20;;
74229;SDS011;62589;12.568;99.958;2023-06-26T02:12:53;5.20;;;1.60;;
74229;SDS011;62589;12.568;99.958;2023-06-26T02:15:19;4.00;;;1.30;;
74229;SDS011;62589;12.568;99.958;2023-06-26T02:17:45;3.97;;;1.00;;
74229;SDS011;62589;12.568;99.958;2023-06-26T02:20:13;1.70;;;0.60;;
74229;SDS011;62589;12.568;99.958;2023-06-26T02:22:41;2.00;;;0.70;;
74229;SDS011;62589;12.568;99.958;2023-06-26T02:25:08;3.42;;;0.80;;
74229;SDS011;62589;12.568;99.958;2023-06-26T02:27:36;1.50;;;0.57;;
74229;SDS011;62589;12.568;99.958;2023-06-26T02:30:02;2.75;;;0.73;;
74229;SDS011;62589;12.568;99.958;2023-06-26T02:32:29;2.03;;;0.65;;
74229;SDS011;62589;12.568;99.958;2023-06-26T02:34:55;3.75;;;0.63;;
74229;SDS011;62589;12.568;99.958;2023-06-26T02:37:21;1.60;;;0.82;;
74229;SDS011;62589;12.568;99.958;2023-06-26T02:39:48;4.07;;;0.75;;
74229;SDS011;62589;12.568;99.958;2023-06-26T02:42:14;3.72;;;0.80;;
74229;SDS011;62589;12.568;99.958;2023-06-26T02:44:41;1.73;;;0.60;;
74229;SDS011;62589;12.568;99.958;2023-06-26T02:47:07;2.50;;;0.60;;
74229;SDS011;62589;12.568;99.958;2023-06-26T02:49:33;2.70;;;0.50;;
74229;SDS011;62589;12.568;99.958;2023-06-26T02:52:00;1.85;;;0.32;;
74229;SDS011;62589;12.568;99.958;2023-06-26T02:54:26;1.70;;;0.60;;
74229;SDS011;62589;12.568;99.958;2023-06-26T02:56:53;2.13;;;0.50;;
74229;SDS011;62589;12.568;99.958;2023-06-26T02:59:19;2.97;;;0.50;;
74229;SDS011;62589;12.568;99.958;2023-06-26T03:01:46;2.92;;;0.70;;
74229;SDS011;62589;12.568;99.958;2023-06-26T03:04:12;5.13;;;0.65;;
74229;SDS011;62589;12.568;99.958;2023-06-26T03:06:40;1.95;;;0.30;;
74229;SDS011;62589;12.568;99.958;2023-06-26T03:09:07;3.47;;;0.70;;
74229;SDS011;62589;12.568;99.958;2023-06-26T03:11:33;1.40;;;0.57;;
74229;SDS011;62589;12.568;99.958;2023-06-26T03:13:59;2.78;;;1.00;;
74229;SDS011;62589;12.568;99.958;2023-06-26T03:16:26;4.18;;;0.60;;
74229;SDS011;62589;12.568;99.958;2023-06-26T03:18:52;2.03;;;0.90;;
74229;SDS011;62589;12.568;99.958;2023-06-26T03:21:19;2.63;;;0.40;;
74229;SDS011;62589;12.568;99.958;2023-06-26T03:23:45;1.90;;;0.60;;
74229;SDS011;62589;12.568;99.958;2023-06-26T03:26:11;1.60;;;0.30;;
74229;SDS011;62589;12.568;99.958;2023-06-26T03:28:40;2.58;;;0.32;;
74229;SDS011;62589;12.568;99.958;2023-06-26T03:31:07;1.20;;;0.43;;
74229;SDS011;62589;12.568;99.958;2023-06-26T03:33:34;2.58;;;0.57;;
74229;SDS011;62589;12.568;99.958;2023-06-26T03:36:00;2.15;;;0.63;;
74229;SDS011;62589;12.568;99.958;2023-06-26T03:38:26;3.30;;;0.70;;
74229;SDS011;62589;12.568;99.958;2023-06-26T03:40:53;1.85;;;0.30;;
74229;SDS011;62589;12.568;99.958;2023-06-26T03:43:19;1.48;;;0.30;;
74229;SDS011;62589;12.568;99.958;2023-06-26T03:45:46;1.67;;;0.38;;
74229;SDS011;62589;12.568;99.958;2023-06-26T03:48:12;1.27;;;0.30;;
74229;SDS011;62589;12.568;99.958;2023-06-26T03:50:39;1.10;;;0.20;;
74229;SDS011;62589;12.568;99.958;2023-06-26T03:53:05;1.98;;;0.30;;
74229;SDS011;62589;12.568;99.958;2023-06-26T03:55:32;2.00;;;0.38;;
74229;SDS011;62589;12.568;99.958;2023-06-26T03:57:59;1.20;;;0.30;;
74229;SDS011;62589;12.568;99.958;2023-06-26T04:00:26;1.90;;;0.47;;
74229;SDS011;62589;12.568;99.958;2023-06-26T04:02:53;2.00;;;0.50;;
74229;SDS011;62589;12.568;99.958;2023-06-26T04:05:19;1.95;;;0.40;;
74229;SDS011;62589;12.568;99.958;2023-06-26T04:07:49;4.13;;;0.60;;
74229;SDS011;62589;12.568;99.958;2023-06-26T04:10:16;7.03;;;0.88;;
74229;SDS011;62589;12.568;99.958;2023-06-26T04:12:43;2.90;;;0.60;;
74229;SDS011;62589;12.568;99.958;2023-06-26T04:15:09;4.55;;;0.77;;
74229;SDS011;62589;12.568;99.958;2023-06-26T04:17:36;2.58;;;0.88;;
74229;SDS011;62589;12.568;99.958;2023-06-26T04:20:02;3.65;;;0.70;;
74229;SDS011;62589;12.568;99.958;2023-06-26T04:22:33;1.40;;;0.50;;
74229;SDS011;62589;12.568;99.958;2023-06-26T04:25:02;3.20;;;0.60;;
74229;SDS011;62589;12.568;99.958;2023-06-26T04:27:29;1.80;;;0.52;;
74229;SDS011;62589;12.568;99.958;2023-06-26T04:29:55;2.55;;;1.00;;
74229;SDS011;62589;12.568;99.958;2023-06-26T04:32:22;2.97;;;0.88;;
74229;SDS011;62589;12.568;99.958;2023-06-26T04:34:49;2.50;;;0.60;;
74229;SDS011;62589;12.568;99.958;2023-06-26T04:37:15;4.03;;;0.80;;
74229;SDS011;62589;12.568;99.958;2023-06-26T04:39:45;2.45;;;0.57;;
74229;SDS011;62589;12.568;99.958;2023-06-26T04:42:11;2.05;;;0.57;;
74229;SDS011;62589;12.568;99.958;2023-06-26T04:44:37;2.08;;;0.43;;
74229;SDS011;62589;12.568;99.958;2023-06-26T04:47:06;3.40;;;0.60;;
74229;SDS011;62589;12.568;99.958;2023-06-26T04:49:33;3.13;;;0.82;;
74229;SDS011;62589;12.568;99.958;2023-06-26T04:52:00;1.48;;;0.40;;
74229;SDS011;62589;12.568;99.958;2023-06-26T04:54:26;2.80;;;0.60;;
74229;SDS011;62589;12.568;99.958;2023-06-26T04:56:56;2.50;;;0.60;;
74229;SDS011;62589;12.568;99.958;2023-06-26T04:59:22;2.97;;;0.68;;
74229;SDS011;62589;12.568;99.958;2023-06-26T05:01:49;3.20;;;0.50;;
74229;SDS011;62589;12.568;99.958;2023-06-26T05:04:15;1.17;;;0.47;;
74229;SDS011;62589;12.568;99.958;2023-06-26T05:06:42;2.63;;;0.73;;
74229;SDS011;62589;12.568;99.958;2023-06-26T05:09:08;2.42;;;0.60;;
74229;SDS011;62589;12.568;99.958;2023-06-26T05:11:36;4.05;;;0.47;;
74229;SDS011;62589;12.568;99.958;2023-06-26T05:14:03;1.88;;;0.30;;
74229;SDS011;62589;12.568;99.958;2023-06-26T05:16:32;1.58;;;0.55;;
74229;SDS011;62589;12.568;99.958;2023-06-26T05:18:59;2.72;;;0.90;;
74229;SDS011;62589;12.568;99.958;2023-06-26T05:21:26;2.17;;;0.82;;
74229;SDS011;62589;12.568;99.958;2023-06-26T05:23:52;2.75;;;0.40;;
74229;SDS011;62589;12.568;99.958;2023-06-26T05:26:22;7.90;;;0.65;;
74229;SDS011;62589;12.568;99.958;2023-06-26T05:28:49;1.98;;;0.32;;
74229;SDS011;62589;12.568;99.958;2023-06-26T05:31:16;2.90;;;0.50;;
74229;SDS011;62589;12.568;99.958;2023-06-26T05:33:43;2.90;;;0.50;;
74229;SDS011;62589;12.568;99.958;2023-06-26T05:36:11;1.98;;;0.40;;
74229;SDS011;62589;12.568;99.958;2023-06-26T05:38:39;1.85;;;0.70;;
74229;SDS011;62589;12.568;99.958;2023-06-26T05:41:06;1.27;;;0.30;;
74229;SDS011;62589;12.568;99.958;2023-06-26T05:43:32;2.22;;;0.45;;
74229;SDS011;62589;12.568;99.958;2023-06-26T05:45:59;2.65;;;0.80;;
74229;SDS011;62589;12.568;99.958;2023-06-26T05:48:26;3.13;;;0.50;;
74229;SDS011;62589;12.568;99.958;2023-06-26T05:50:52;2.20;;;0.32;;
74229;SDS011;62589;12.568;99.958;2023-06-26T05:53:19;5.70;;;0.68;;
74229;SDS011;62589;12.568;99.958;2023-06-26T05:55:46;3.28;;;0.50;;
74229;SDS011;62589;12.568;99.958;2023-06-26T05:58:13;3.22;;;0.50;;
74229;SDS011;62589;12.568;99.958;2023-06-26T06:00:41;2.63;;;0.55;;
74229;SDS011;62589;12.568;99.958;2023-06-26T06:03:09;1.55;;;0.52;;
74229;SDS011;62589;12.568;99.958;2023-06-26T06:05:36;1.13;;;0.43;;
74229;SDS011;62589;12.568;99.958;2023-06-26T06:08:02;1.38;;;0.20;;
74229;SDS011;62589;12.568;99.958;2023-06-26T06:10:29;1.70;;;0.50;;
74229;SDS011;62589;12.568;99.958;2023-06-26T06:12:55;2.25;;;0.60;;
74229;SDS011;62589;12.568;99.958;2023-06-26T06:15:22;2.60;;;0.60;;
74229;SDS011;62589;12.568;99.958;2023-06-26T06:17:48;2.28;;;0.65;;
74229;SDS011;62589;12.568;99.958;2023-06-26T06:20:15;5.82;;;0.57;;
74229;SDS011;62589;12.568;99.958;2023-06-26T06:22:42;1.25;;;0.30;;
74229;SDS011;62589;12.568;99.958;2023-06-26T06:25:09;1.42;;;0.50;;
74229;SDS011;62589;12.568;99.958;2023-06-26T06:27:35;1.75;;;0.60;;
74229;SDS011;62589;12.568;99.958;2023-06-26T06:30:02;3.30;;;0.43;;
74229;SDS011;62589;12.568;99.958;2023-06-26T06:32:28;2.70;;;0.50;;
74229;SDS011;62589;12.568;99.958;2023-06-26T06:34:55;3.80;;;0.73;;
74229;SDS011;62589;12.568;99.958;2023-06-26T06:37:22;1.95;;;0.40;;
74229;SDS011;62589;12.568;99.958;2023-06-26T06:39:49;3.22;;;0.63;;
74229;SDS011;62589;12.568;99.958;2023-06-26T06:42:15;3.42;;;0.47;;
74229;SDS011;62589;12.568;99.958;2023-06-26T06:44:42;0.75;;;0.60;;
74229;SDS011;62589;12.568;99.958;2023-06-26T06:47:08;2.13;;;0.50;;
74229;SDS011;62589;12.568;99.958;2023-06-26T06:49:35;2.22;;;0.43;;
74229;SDS011;62589;12.568;99.958;2023-06-26T06:52:01;2.97;;;0.50;;
74229;SDS011;62589;12.568;99.958;2023-06-26T06:54:27;3.55;;;0.50;;
74229;SDS011;62589;12.568;99.958;2023-06-26T06:56:54;2.78;;;0.40;;
74229;SDS011;62589;12.568;99.958;2023-06-26T06:59:20;0.82;;;0.43;;
74229;SDS011;62589;12.568;99.958;2023-06-26T07:01:47;2.85;;;0.43;;
74229;SDS011;62589;12.568;99.958;2023-06-26T07:04:13;2.50;;;0.43;;
74229;SDS011;62589;12.568;99.958;2023-06-26T07:06:40;3.42;;;0.40;;
74229;SDS011;62589;12.568;99.958;2023-06-26T07:09:06;1.88;;;0.60;;
74229;SDS011;62589;12.568;99.958;2023-06-26T07:11:33;1.75;;;0.22;;
74229;SDS011;62589;12.568;99.958;2023-06-26T07:13:59;1.95;;;0.50;;
74229;SDS011;62589;12.568;99.958;2023-06-26T07:16:26;2.03;;;0.50;;
74229;SDS011;62589;12.568;99.958;2023-06-26T07:18:52;2.95;;;0.50;;
74229;SDS011;62589;12.568;99.958;2023-06-26T07:21:20;1.88;;;0.50;;
74229;SDS011;62589;12.568;99.958;2023-06-26T07:23:46;2.45;;;0.45;;
74229;SDS011;62589;12.568;99.958;2023-06-26T07:26:14;0.77;;;0.30;;
74229;SDS011;62589;12.568;99.958;2023-06-26T07:28:41;3.42;;;0.60;;
74229;SDS011;62589;12.568;99.958;2023-06-26T07:31:07;2.00;;;0.68;;
74229;SDS011;62589;12.568;99.958;2023-06-26T07:33:34;3.50;;;0.40;;
74229;SDS011;62589;12.568;99.958;2023-06-26T07:36:01;0.98;;;0.57;;
74229;SDS011;62589;12.568;99.958;2023-06-26T07:38:27;2.28;;;0.40;;
74229;SDS011;62589;12.568;99.958;2023-06-26T07:40:53;1.00;;;0.45;;
74229;SDS011;62589;12.568;99.958;2023-06-26T07:43:20;0.95;;;0.30;;
74229;SDS011;62589;12.568;99.958;2023-06-26T07:45:48;1.90;;;0.20;;
74229;SDS011;62589;12.568;99.958;2023-06-26T07:48:16;0.65;;;0.10;;
74229;SDS011;62589;12.568;99.958;2023-06-26T07:50:43;0.38;;;0.10;;
74229;SDS011;62589;12.568;99.958;2023-06-26T07:53:09;0.70;;;0.10;;
74229;SDS011;62589;12.568;99.958;2023-06-26T07:55:35;1.90;;;0.10;;
74229;SDS011;62589;12.568;99.958;2023-06-26T07:58:02;0.70;;;0.00;;
74229;SDS011;62589;12.568;99.958;2023-06-26T08:00:28;1.52;;;0.10;;
74229;SDS011;62589;12.568;99.958;2023-06-26T08:02:55;1.50;;;0.03;;
74229;SDS011;62589;12.568;99.958;2023-06-26T08:05:21;0.40;;;0.10;;
74229;SDS011;62589;12.568;99.958;2023-06-26T08:07:47;1.73;;;0.10;;
74229;SDS011;62589;12.568;99.958;2023-06-26T08:10:14;2.13;;;0.00;;
74229;SDS011;62589;12.568;99.958;2023-06-26T08:12:40;0.95;;;0.00;;
74229;SDS011;62589;12.568;99.958;2023-06-26T08:15:10;0.32;;;0.03;;
74229;SDS011;62589;12.568;99.958;2023-06-26T08:17:37;0.47;;;0.10;;
74229;SDS011;62589;12.568;99.958;2023-06-26T08:20:04;5.95;;;0.20;;
74229;SDS011;62589;12.568;99.958;2023-06-26T08:22:33;1.02;;;0.10;;
74229;SDS011;62589;12.568;99.958;2023-06-26T08:25:00;3.58;;;0.10;;
74229;SDS011;62589;12.568;99.958;2023-06-26T08:27:27;0.98;;;0.25;;
74229;SDS011;62589;12.568;99.958;2023-06-26T08:29:53;0.43;;;0.00;;
74229;SDS011;62589;12.568;99.958;2023-06-26T08:32:20;2.63;;;0.10;;
74229;SDS011;62589;12.568;99.958;2023-06-26T08:34:46;0.77;;;0.10;;
74229;SDS011;62589;12.568;99.958;2023-06-26T08:37:13;1.52;;;0.10;;
74229;SDS011;62589;12.568;99.958;2023-06-26T08:39:39;1.42;;;0.22;;
74229;SDS011;62589;12.568;99.958;2023-06-26T08:42:05;0.75;;;0.20;;
74229;SDS011;62589;12.568;99.958;2023-06-26T08:44:32;1.25;;;0.10;;
74229;SDS011;62589;12.568;99.958;2023-06-26T08:47:01;0.40;;;0.10;;
74229;SDS011;62589;12.568;99.958;2023-06-26T08:49:34;2.42;;;0.10;;
74229;SDS011;62589;12.568;99.958;2023-06-26T08:52:17;0.80;;;0.10;;
74229;SDS011;62589;12.568;99.958;2023-06-26T08:54:50;0.73;;;0.10;;
74229;SDS011;62589;12.568;99.958;2023-06-26T08:57:22;1.10;;;0.30;;
74229;SDS011;62589;12.568;99.958;2023-06-26T08:59:51;1.42;;;0.10;;
74229;SDS011;62589;12.568;99.958;2023-06-26T09:02:18;0.90;;;0.08;;
74229;SDS011;62589;12.568;99.958;2023-06-26T09:04:47;0.38;;;0.00;;
74229;SDS011;62589;12.568;99.958;2023-06-26T09:07:15;0.45;;;0.10;;
74229;SDS011;62589;12.568;99.958;2023-06-26T09:09:42;1.08;;;0.15;;
74229;SDS011;62589;12.568;99.958;2023-06-26T09:12:09;1.38;;;0.20;;
74229;SDS011;62589;12.568;99.958;2023-06-26T09:14:36;4.15;;;0.45;;
74229;SDS011;62589;12.568;99.958;2023-06-26T09:17:03;2.63;;;0.50;;
74229;SDS011;62589;12.568;99.958;2023-06-26T09:19:30;3.05;;;0.55;;
74229;SDS011;62589;12.568;99.958;2023-06-26T09:21:56;1.55;;;0.30;;
74229;SDS011;62589;12.568;99.958;2023-06-26T09:24:23;3.78;;;0.50;;
74229;SDS011;62589;12.568;99.958;2023-06-26T09:26:50;3.28;;;0.52;;
74229;SDS011;62589;12.568;99.958;2023-06-26T09:29:17;0.98;;;0.40;;
74229;SDS011;62589;12.568;99.958;2023-06-26T09:31:45;3.03;;;0.90;;
74229;SDS011;62589;12.568;99.958;2023-06-26T09:34:11;1.75;;;1.10;;
74229;SDS011;62589;12.568;99.958;2023-06-26T09:36:37;2.20;;;0.70;;
74229;SDS011;62589;12.568;99.958;2023-06-26T09:39:05;2.10;;;0.65;;
74229;SDS011;62589;12.568;99.958;2023-06-26T09:41:37;3.08;;;0.85;;
74229;SDS011;62589;12.568;99.958;2023-06-26T09:44:04;3.08;;;1.08;;
74229;SDS011;62589;12.568;99.958;2023-06-26T09:46:31;3.65;;;0.98;;
74229;SDS011;62589;12.568;99.958;2023-06-26T09:48:58;1.80;;;0.73;;
74229;SDS011;62589;12.568;99.958;2023-06-26T09:51:43;2.03;;;0.77;;
74229;SDS011;62589;12.568;99.958;2023-06-26T09:54:09;3.13;;;0.98;;
74229;SDS011;62589;12.568;99.958;2023-06-26T09:56:36;2.90;;;1.05;;
74229;SDS011;62589;12.568;99.958;2023-06-26T09:59:03;1.95;;;1.05;;
74229;SDS011;62589;12.568;99.958;2023-06-26T10:01:31;5.65;;;0.95;;
74229;SDS011;62589;12.568;99.958;2023-06-26T10:03:58;4.05;;;0.80;;
74229;SDS011;62589;12.568;99.958;2023-06-26T10:06:31;2.50;;;0.70;;
74229;SDS011;62589;12.568;99.958;2023-06-26T10:09:02;1.50;;;0.90;;
74229;SDS011;62589;12.568;99.958;2023-06-26T10:11:32;1.95;;;0.90;;
74229;SDS011;62589;12.568;99.958;2023-06-26T10:14:21;2.75;;;0.90;;
74229;SDS011;62589;12.568;99.958;2023-06-26T10:16:51;3.55;;;0.90;;
74229;SDS011;62589;12.568;99.958;2023-06-26T10:19:23;1.85;;;0.70;;
74229;SDS011;62589;12.568;99.958;2023-06-26T10:21:53;2.25;;;0.70;;
74229;SDS011;62589;12.568;99.958;2023-06-26T10:24:21;1.33;;;0.70;;
74229;SDS011;62589;12.568;99.958;2023-06-26T10:26:50;2.35;;;0.40;;
74229;SDS011;62589;12.568;99.958;2023-06-26T10:29:23;1.92;;;0.60;;
74229;SDS011;62589;12.568;99.958;2023-06-26T10:31:52;4.43;;;0.70;;
74229;SDS011;62589;12.568;99.958;2023-06-26T10:34:22;2.47;;;0.75;;
74229;SDS011;62589;12.568;99.958;2023-06-26T10:36:58;3.92;;;0.60;;
74229;SDS011;62589;12.568;99.958;2023-06-26T10:39:48;1.20;;;0.60;;
74229;SDS011;62589;12.568;99.958;2023-06-26T10:42:16;2.83;;;0.80;;
74229;SDS011;62589;12.568;99.958;2023-06-26T10:44:45;1.42;;;0.70;;
74229;SDS011;62589;12.568;99.958;2023-06-26T10:56:02;2.30;;;0.77;;
74229;SDS011;62589;12.568;99.958;2023-06-26T10:58:34;2.38;;;0.60;;
74229;SDS011;62589;12.568;99.958;2023-06-26T11:01:15;1.95;;;0.68;;
74229;SDS011;62589;12.568;99.958;2023-06-26T11:03:47;3.30;;;0.68;;
74229;SDS011;62589;12.568;99.958;2023-06-26T11:06:17;5.40;;;1.52;;
74229;SDS011;62589;12.568;99.958;2023-06-26T11:08:49;3.25;;;1.30;;
74229;SDS011;62589;12.568;99.958;2023-06-26T11:14:24;1.48;;;0.80;;
74229;SDS011;62589;12.568;99.958;2023-06-26T11:30:23;0.85;;;0.57;;
74229;SDS011;62589;12.568;99.958;2023-06-26T11:32:51;2.53;;;0.82;;
74229;SDS011;62589;12.568;99.958;2023-06-26T11:35:25;2.50;;;0.70;;
74229;SDS011;62589;12.568;99.958;2023-06-26T11:37:56;2.97;;;0.90;;
74229;SDS011;62589;12.568;99.958;2023-06-26T11:40:26;2.55;;;0.85;;
74229;SDS011;62589;12.568;99.958;2023-06-26T11:42:54;1.63;;;0.77;;
74229;SDS011;62589;12.568;99.958;2023-06-26T11:45:21;2.22;;;0.52;;
74229;SDS011;62589;12.568;99.958;2023-06-26T11:47:47;4.03;;;1.08;;
74229;SDS011;62589;12.568;99.958;2023-06-26T11:50:15;2.85;;;0.82;;
74229;SDS011;62589;12.568;99.958;2023-06-26T11:52:45;3.45;;;0.90;;
74229;SDS011;62589;12.568;99.958;2023-06-26T11:55:25;2.78;;;1.00;;
74229;SDS011;62589;12.568;99.958;2023-06-26T11:57:56;1.95;;;0.60;;
74229;SDS011;62589;12.568;99.958;2023-06-26T12:00:23;0.85;;;0.57;;
74229;SDS011;62589;12.568;99.958;2023-06-26T12:02:49;2.03;;;0.85;;
74229;SDS011;62589;12.568;99.958;2023-06-26T12:05:17;2.55;;;0.90;;
74229;SDS011;62589;12.568;99.958;2023-06-26T12:07:46;1.63;;;0.90;;
74229;SDS011;62589;12.568;99.958;2023-06-26T12:10:14;2.17;;;0.80;;
74229;SDS011;62589;12.568;99.958;2023-06-26T12:12:41;1.85;;;1.10;;
74229;SDS011;62589;12.568;99.958;2023-06-26T12:15:09;3.35;;;1.30;;
74229;SDS011;62589;12.568;99.958;2023-06-26T12:17:38;2.80;;;1.30;;
74229;SDS011;62589;12.568;99.958;2023-06-26T12:20:05;3.38;;;1.88;;
74229;SDS011;62589;12.568;99.958;2023-06-26T12:22:45;7.90;;;1.70;;
74229;SDS011;62589;12.568;99.958;2023-06-26T12:25:12;5.25;;;1.90;;
74229;SDS011;62589;12.568;99.958;2023-06-26T12:27:39;6.57;;;2.78;;
74229;SDS011;62589;12.568;99.958;2023-06-26T12:30:06;7.50;;;4.03;;
74229;SDS011;62589;12.568;99.958;2023-06-26T12:32:34;8.70;;;4.32;;
74229;SDS011;62589;12.568;99.958;2023-06-26T12:35:01;7.75;;;4.45;;
74229;SDS011;62589;12.568;99.958;2023-06-26T12:37:28;8.68;;;4.20;;
74229;SDS011;62589;12.568;99.958;2023-06-26T12:39:56;11.35;;;4.55;;
74229;SDS011;62589;12.568;99.958;2023-06-26T12:42:24;9.52;;;5.00;;
74229;SDS011;62589;12.568;99.958;2023-06-26T12:44:52;8.00;;;5.15;;
74229;SDS011;62589;12.568;99.958;2023-06-26T12:47:27;9.52;;;5.97;;
74229;SDS011;62589;12.568;99.958;2023-06-26T12:49:56;10.38;;;6.60;;
74229;SDS011;62589;12.568;99.958;2023-06-26T12:52:23;9.32;;;6.05;;
74229;SDS011;62589;12.568;99.958;2023-06-26T12:54:53;8.55;;;6.30;;
74229;SDS011;62589;12.568;99.958;2023-06-26T12:57:21;12.10;;;6.55;;
74229;SDS011;62589;12.568;99.958;2023-06-26T12:59:48;13.00;;;6.93;;
74229;SDS011;62589;12.568;99.958;2023-06-26T13:02:14;10.77;;;6.60;;
74229;SDS011;62589;12.568;99.958;2023-06-26T13:04:41;11.20;;;6.53;;
74229;SDS011;62589;12.568;99.958;2023-06-26T13:07:09;9.90;;;5.72;;
74229;SDS011;62589;12.568;99.958;2023-06-26T13:09:36;8.27;;;5.43;;
74229;SDS011;62589;12.568;99.958;2023-06-26T13:12:06;8.88;;;5.47;;
74229;SDS011;62589;12.568;99.958;2023-06-26T13:14:33;8.27;;;5.00;;
74229;SDS011;62589;12.568;99.958;2023-06-26T13:17:00;9.60;;;5.05;;
74229;SDS011;62589;12.568;99.958;2023-06-26T13:19:27;8.20;;;5.50;;
74229;SDS011;62589;12.568;99.958;2023-06-26T13:21:53;8.88;;;5.15;;
74229;SDS011;62589;12.568;99.958;2023-06-26T13:24:20;10.20;;;5.05;;
74229;SDS011;62589;12.568;99.958;2023-06-26T13:26:46;10.48;;;5.50;;
74229;SDS011;62589;12.568;99.958;2023-06-26T13:29:13;12.07;;;5.60;;
74229;SDS011;62589;12.568;99.958;2023-06-26T13:31:39;8.90;;;4.90;;
74229;SDS011;62589;12.568;99.958;2023-06-26T13:34:06;9.57;;;5.03;;
74229;SDS011;62589;12.568;99.958;2023-06-26T13:36:33;7.25;;;3.58;;
74229;SDS011;62589;12.568;99.958;2023-06-26T13:38:59;5.80;;;2.70;;
74229;SDS011;62589;12.568;99.958;2023-06-26T13:41:28;5.00;;;2.60;;
74229;SDS011;62589;12.568;99.958;2023-06-26T13:43:55;3.08;;;1.55;;
74229;SDS011;62589;12.568;99.958;2023-06-26T13:46:21;5.78;;;1.52;;
74229;SDS011;62589;12.568;99.958;2023-06-26T13:48:48;2.85;;;1.17;;
74229;SDS011;62589;12.568;99.958;2023-06-26T13:51:16;2.45;;;0.70;;
74229;SDS011;62589;12.568;99.958;2023-06-26T13:53:42;3.38;;;0.73;;
74229;SDS011;62589;12.568;99.958;2023-06-26T13:56:08;3.60;;;0.70;;
74229;SDS011;62589;12.568;99.958;2023-06-26T13:58:35;1.10;;;0.40;;
74229;SDS011;62589;12.568;99.958;2023-06-26T14:01:02;1.27;;;0.60;;
74229;SDS011;62589;12.568;99.958;2023-06-26T14:03:32;1.77;;;0.60;;
74229;SDS011;62589;12.568;99.958;2023-06-26T14:05:58;2.60;;;0.70;;
74229;SDS011;62589;12.568;99.958;2023-06-26T14:08:25;2.05;;;0.40;;
74229;SDS011;62589;12.568;99.958;2023-06-26T14:10:52;3.47;;;0.70;;
74229;SDS011;62589;12.568;99.958;2023-06-26T14:13:18;2.05;;;0.60;;
74229;SDS011;62589;12.568;99.958;2023-06-26T14:15:45;1.30;;;0.30;;
74229;SDS011;62589;12.568;99.958;2023-06-26T14:18:11;3.67;;;0.90;;
74229;SDS011;62589;12.568;99.958;2023-06-26T14:20:39;1.55;;;0.30;;
74229;SDS011;62589;12.568;99.958;2023-06-26T14:23:06;3.25;;;0.50;;
74229;SDS011;62589;12.568;99.958;2023-06-26T14:25:32;1.17;;;0.50;;
74229;SDS011;62589;12.568;99.958;2023-06-26T14:27:59;2.95;;;0.50;;
74229;SDS011;62589;12.568;99.958;2023-06-26T14:30:25;3.55;;;0.68;;
74229;SDS011;62589;12.568;99.958;2023-06-26T14:32:52;2.28;;;0.70;;
74229;SDS011;62589;12.568;99.958;2023-06-26T14:35:19;2.40;;;0.60;;
74229;SDS011;62589;12.568;99.958;2023-06-26T14:37:45;1.42;;;0.52;;
74229;SDS011;62589;12.568;99.958;2023-06-26T14:40:13;4.05;;;0.80;;
74229;SDS011;62589;12.568;99.958;2023-06-26T14:42:40;1.02;;;0.80;;
74229;SDS011;62589;12.568;99.958;2023-06-26T14:45:08;2.03;;;0.75;;
74229;SDS011;62589;12.568;99.958;2023-06-26T14:47:35;2.28;;;0.65;;
74229;SDS011;62589;12.568;99.958;2023-06-26T14:50:01;2.33;;;0.82;;
74229;SDS011;62589;12.568;99.958;2023-06-26T14:52:28;3.50;;;0.57;;
74229;SDS011;62589;12.568;99.958;2023-06-26T14:54:55;1.40;;;0.47;;
74229;SDS011;62589;12.568;99.958;2023-06-26T14:57:21;2.50;;;0.82;;
74229;SDS011;62589;12.568;99.958;2023-06-26T14:59:47;1.33;;;0.70;;
74229;SDS011;62589;12.568;99.958;2023-06-26T15:02:14;1.98;;;0.75;;
74229;SDS011;62589;12.568;99.958;2023-06-26T15:04:40;1.48;;;0.70;;
74229;SDS011;62589;12.568;99.958;2023-06-26T15:07:07;1.42;;;0.60;;
74229;SDS011;62589;12.568;99.958;2023-06-26T15:09:33;2.70;;;0.75;;
74229;SDS011;62589;12.568;99.958;2023-06-26T15:12:00;3.17;;;0.77;;
74229;SDS011;62589;12.568;99.958;2023-06-26T15:14:27;2.28;;;0.85;;